Terminal Aerodrome Forecast
Issued by NWS Charleston, WV

Current Version | Previous Version | Graphics & Text | Print | Product List | Glossary On
Versions: 1 2 3 4 5 6 7 8 9 10 11 12 13 14 15 16 17 18 19 20 21 22
100
FTUS41 KRLX 121517 AAA
TAFPKB
TAF AMD
KPKB 121517Z 1215/1312 25004KT P6SM OVC050
     FM130200 29011G21KT 5SM -SHSN BR BKN020
     FM130500 30012G22KT 6SM -SHSN BKN030=

USA.gov is the U.S. government's official web portal to all federal, state and local government web resources and services.